sensor_id;sensor_type;location;lat;lon;timestamp;temperature;humidity
5647;DHT22;2845;48.626;9.362;2023-12-29T00:00:19;8.90;98.80
5647;DHT22;2845;48.626;9.362;2023-12-29T00:02:54;8.80;98.70
5647;DHT22;2845;48.626;9.362;2023-12-29T00:05:28;9.20;98.80
5647;DHT22;2845;48.626;9.362;2023-12-29T00:08:06;8.90;98.60
5647;DHT22;2845;48.626;9.362;2023-12-29T00:10:41;8.70;98.70
5647;DHT22;2845;48.626;9.362;2023-12-29T00:13:15;12.00;99.20
5647;DHT22;2845;48.626;9.362;2023-12-29T00:15:56;8.90;98.60
5647;DHT22;2845;48.626;9.362;2023-12-29T00:18:32;8.40;99.10
5647;DHT22;2845;48.626;9.362;2023-12-29T00:21:07;12.10;99.40
5647;DHT22;2845;48.626;9.362;2023-12-29T00:26:17;6.20;97.90
5647;DHT22;2845;48.626;9.362;2023-12-29T00:28:52;8.90;98.50
5647;DHT22;2845;48.626;9.362;2023-12-29T00:31:27;8.90;98.50
5647;DHT22;2845;48.626;9.362;2023-12-29T00:34:02;8.90;98.50
5647;DHT22;2845;48.626;9.362;2023-12-29T00:36:36;8.90;98.50
5647;DHT22;2845;48.626;9.362;2023-12-29T00:39:12;8.90;98.40
5647;DHT22;2845;48.626;9.362;2023-12-29T00:41:47;8.90;98.30
5647;DHT22;2845;48.626;9.362;2023-12-29T00:44:21;10.60;98.60
5647;DHT22;2845;48.626;9.362;2023-12-29T00:46:56;8.70;98.20
5647;DHT22;2845;48.626;9.362;2023-12-29T00:49:30;9.00;98.20
5647;DHT22;2845;48.626;9.362;2023-12-29T00:52:06;8.90;98.20
5647;DHT22;2845;48.626;9.362;2023-12-29T00:57:17;9.00;98.20
5647;DHT22;2845;48.626;9.362;2023-12-29T00:59:51;9.00;98.40
5647;DHT22;2845;48.626;9.362;2023-12-29T01:02:25;9.00;98.10
5647;DHT22;2845;48.626;9.362;2023-12-29T01:04:59;9.10;98.10
5647;DHT22;2845;48.626;9.362;2023-12-29T01:07:34;9.10;98.00
5647;DHT22;2845;48.626;9.362;2023-12-29T01:10:10;9.10;98.00
5647;DHT22;2845;48.626;9.362;2023-12-29T01:12:45;9.10;97.90
5647;DHT22;2845;48.626;9.362;2023-12-29T01:15:19;9.00;97.80
5647;DHT22;2845;48.626;9.362;2023-12-29T01:17:53;9.00;97.90
5647;DHT22;2845;48.626;9.362;2023-12-29T01:20:28;10.30;98.40
5647;DHT22;2845;48.626;9.362;2023-12-29T01:23:03;8.90;98.00
5647;DHT22;2845;48.626;9.362;2023-12-29T01:28:13;9.00;97.90
5647;DHT22;2845;48.626;9.362;2023-12-29T01:30:51;5.10;97.00
5647;DHT22;2845;48.626;9.362;2023-12-29T01:33:25;11.40;98.20
5647;DHT22;2845;48.626;9.362;2023-12-29T01:36:00;9.10;97.70
5647;DHT22;2845;48.626;9.362;2023-12-29T01:38:46;9.00;97.70
5647;DHT22;2845;48.626;9.362;2023-12-29T01:41:22;9.10;97.60
5647;DHT22;2845;48.626;9.362;2023-12-29T01:44:19;9.10;97.50
5647;DHT22;2845;48.626;9.362;2023-12-29T01:46:58;9.20;97.50
5647;DHT22;2845;48.626;9.362;2023-12-29T01:49:34;9.10;97.50
5647;DHT22;2845;48.626;9.362;2023-12-29T01:52:08;9.10;97.50
5647;DHT22;2845;48.626;9.362;2023-12-29T01:54:44;11.90;98.40
5647;DHT22;2845;48.626;9.362;2023-12-29T01:57:22;9.10;97.60
5647;DHT22;2845;48.626;9.362;2023-12-29T02:02:36;9.10;97.80
5647;DHT22;2845;48.626;9.362;2023-12-29T02:05:13;9.10;97.50
5647;DHT22;2845;48.626;9.362;2023-12-29T02:07:51;9.10;97.60
5647;DHT22;2845;48.626;9.362;2023-12-29T02:10:27;9.00;97.60
5647;DHT22;2845;48.626;9.362;2023-12-29T02:15:38;8.80;97.80
5647;DHT22;2845;48.626;9.362;2023-12-29T02:18:14;8.70;98.00
5647;DHT22;2845;48.626;9.362;2023-12-29T02:20:50;10.30;98.60
5647;DHT22;2845;48.626;9.362;2023-12-29T02:26:05;8.60;98.20
5647;DHT22;2845;48.626;9.362;2023-12-29T02:28:45;8.60;98.20
5647;DHT22;2845;48.626;9.362;2023-12-29T02:31:24;11.00;98.80
5647;DHT22;2845;48.626;9.362;2023-12-29T02:34:01;8.70;98.10
5647;DHT22;2845;48.626;9.362;2023-12-29T02:36:40;8.80;98.10
5647;DHT22;2845;48.626;9.362;2023-12-29T02:39:16;8.80;98.10
5647;DHT22;2845;48.626;9.362;2023-12-29T02:41:52;8.70;98.20
5647;DHT22;2845;48.626;9.362;2023-12-29T02:44:26;8.70;98.30
5647;DHT22;2845;48.626;9.362;2023-12-29T02:49:37;9.00;98.20
5647;DHT22;2845;48.626;9.362;2023-12-29T02:52:11;8.80;98.20
5647;DHT22;2845;48.626;9.362;2023-12-29T02:54:46;8.90;98.10
5647;DHT22;2845;48.626;9.362;2023-12-29T02:59:56;9.00;98.10
5647;DHT22;2845;48.626;9.362;2023-12-29T03:02:31;9.00;98.10
5647;DHT22;2845;48.626;9.362;2023-12-29T03:05:06;9.00;98.00
5647;DHT22;2845;48.626;9.362;2023-12-29T03:07:41;9.00;98.10
5647;DHT22;2845;48.626;9.362;2023-12-29T03:10:16;9.10;98.30
5647;DHT22;2845;48.626;9.362;2023-12-29T03:12:52;9.10;98.10
5647;DHT22;2845;48.626;9.362;2023-12-29T03:15:27;9.10;98.10
5647;DHT22;2845;48.626;9.362;2023-12-29T03:18:01;11.10;98.50
5647;DHT22;2845;48.626;9.362;2023-12-29T03:20:36;9.10;98.10
5647;DHT22;2845;48.626;9.362;2023-12-29T03:23:11;9.10;98.00
5647;DHT22;2845;48.626;9.362;2023-12-29T03:25:45;9.20;98.00
5647;DHT22;2845;48.626;9.362;2023-12-29T03:28:21;9.10;98.00
5647;DHT22;2845;48.626;9.362;2023-12-29T03:30:55;9.20;98.00
5647;DHT22;2845;48.626;9.362;2023-12-29T03:33:30;9.20;98.20
5647;DHT22;2845;48.626;9.362;2023-12-29T03:36:05;9.10;98.00
5647;DHT22;2845;48.626;9.362;2023-12-29T03:38:41;9.20;98.00
5647;DHT22;2845;48.626;9.362;2023-12-29T03:41:16;8.90;98.00
5647;DHT22;2845;48.626;9.362;2023-12-29T03:43:53;9.10;98.10
5647;DHT22;2845;48.626;9.362;2023-12-29T03:46:29;9.10;98.10
5647;DHT22;2845;48.626;9.362;2023-12-29T03:49:04;9.00;98.20
5647;DHT22;2845;48.626;9.362;2023-12-29T03:54:14;10.00;98.40
5647;DHT22;2845;48.626;9.362;2023-12-29T03:56:50;9.10;98.10
5647;DHT22;2845;48.626;9.362;2023-12-29T04:02:01;9.00;98.10
5647;DHT22;2845;48.626;9.362;2023-12-29T04:04:37;8.90;98.20
5647;DHT22;2845;48.626;9.362;2023-12-29T04:07:12;8.80;98.40
5647;DHT22;2845;48.626;9.362;2023-12-29T04:09:46;8.70;98.60
5647;DHT22;2845;48.626;9.362;2023-12-29T04:12:20;8.70;98.70
5647;DHT22;2845;48.626;9.362;2023-12-29T04:17:31;8.70;98.80
5647;DHT22;2845;48.626;9.362;2023-12-29T04:20:06;8.70;98.90
5647;DHT22;2845;48.626;9.362;2023-12-29T04:22:41;8.70;98.80
5647;DHT22;2845;48.626;9.362;2023-12-29T04:25:17;8.70;98.90
5647;DHT22;2845;48.626;9.362;2023-12-29T04:27:51;8.70;98.90
5647;DHT22;2845;48.626;9.362;2023-12-29T04:33:01;8.80;98.80
5647;DHT22;2845;48.626;9.362;2023-12-29T04:35:36;8.80;98.80
5647;DHT22;2845;48.626;9.362;2023-12-29T04:38:10;8.70;98.80
5647;DHT22;2845;48.626;9.362;2023-12-29T04:40:45;8.70;98.90
5647;DHT22;2845;48.626;9.362;2023-12-29T04:43:21;8.70;98.90
5647;DHT22;2845;48.626;9.362;2023-12-29T04:48:32;8.80;99.00
5647;DHT22;2845;48.626;9.362;2023-12-29T04:51:06;11.80;99.60
5647;DHT22;2845;48.626;9.362;2023-12-29T04:53:40;8.80;98.90
5647;DHT22;2845;48.626;9.362;2023-12-29T04:56:15;8.90;98.80
5647;DHT22;2845;48.626;9.362;2023-12-29T04:58:51;8.90;98.70
5647;DHT22;2845;48.626;9.362;2023-12-29T05:01:27;9.00;98.90
5647;DHT22;2845;48.626;9.362;2023-12-29T05:04:02;9.00;98.70
5647;DHT22;2845;48.626;9.362;2023-12-29T05:06:37;8.90;98.70
5647;DHT22;2845;48.626;9.362;2023-12-29T05:09:11;9.00;98.70
5647;DHT22;2845;48.626;9.362;2023-12-29T05:11:46;9.00;98.70
5647;DHT22;2845;48.626;9.362;2023-12-29T05:14:20;8.90;98.80
5647;DHT22;2845;48.626;9.362;2023-12-29T05:16:56;9.00;98.90
5647;DHT22;2845;48.626;9.362;2023-12-29T05:19:30;9.00;98.80
5647;DHT22;2845;48.626;9.362;2023-12-29T05:22:05;9.00;98.80
5647;DHT22;2845;48.626;9.362;2023-12-29T05:24:40;8.90;98.90
5647;DHT22;2845;48.626;9.362;2023-12-29T05:27:14;8.90;99.00
5647;DHT22;2845;48.626;9.362;2023-12-29T05:29:48;8.80;99.00
5647;DHT22;2845;48.626;9.362;2023-12-29T05:32:24;8.80;99.10
5647;DHT22;2845;48.626;9.362;2023-12-29T05:34:59;8.80;99.10
5647;DHT22;2845;48.626;9.362;2023-12-29T05:37:33;8.80;99.10
5647;DHT22;2845;48.626;9.362;2023-12-29T05:40:08;8.80;99.10
5647;DHT22;2845;48.626;9.362;2023-12-29T05:42:43;8.80;99.10
5647;DHT22;2845;48.626;9.362;2023-12-29T05:45:18;9.90;99.70
5647;DHT22;2845;48.626;9.362;2023-12-29T05:50:28;8.60;99.40
5647;DHT22;2845;48.626;9.362;2023-12-29T05:53:03;8.70;99.50
5647;DHT22;2845;48.626;9.362;2023-12-29T05:55:38;8.70;99.40
5647;DHT22;2845;48.626;9.362;2023-12-29T05:58:13;8.80;99.30
5647;DHT22;2845;48.626;9.362;2023-12-29T06:00:47;8.80;99.30
5647;DHT22;2845;48.626;9.362;2023-12-29T06:03:23;8.70;99.40
5647;DHT22;2845;48.626;9.362;2023-12-29T06:05:58;12.30;99.90
5647;DHT22;2845;48.626;9.362;2023-12-29T06:08:32;8.70;99.40
5647;DHT22;2845;48.626;9.362;2023-12-29T06:11:07;8.70;99.50
5647;DHT22;2845;48.626;9.362;2023-12-29T06:13:42;8.80;99.40
5647;DHT22;2845;48.626;9.362;2023-12-29T06:16:18;12.00;99.90
5647;DHT22;2845;48.626;9.362;2023-12-29T06:21:29;8.90;99.30
5647;DHT22;2845;48.626;9.362;2023-12-29T06:24:04;9.00;99.20
5647;DHT22;2845;48.626;9.362;2023-12-29T06:26:38;9.00;99.10
5647;DHT22;2845;48.626;9.362;2023-12-29T06:29:16;9.00;99.10
5647;DHT22;2845;48.626;9.362;2023-12-29T06:31:50;9.10;99.10
5647;DHT22;2845;48.626;9.362;2023-12-29T06:34:26;9.10;99.00
5647;DHT22;2845;48.626;9.362;2023-12-29T06:37:01;9.10;99.00
5647;DHT22;2845;48.626;9.362;2023-12-29T06:39:35;9.10;99.00
5647;DHT22;2845;48.626;9.362;2023-12-29T06:42:10;9.00;99.10
5647;DHT22;2845;48.626;9.362;2023-12-29T06:44:45;8.90;99.20
5647;DHT22;2845;48.626;9.362;2023-12-29T06:47:19;8.90;99.60
5647;DHT22;2845;48.626;9.362;2023-12-29T06:52:31;8.80;99.60
5647;DHT22;2845;48.626;9.362;2023-12-29T06:55:07;8.70;99.70
5647;DHT22;2845;48.626;9.362;2023-12-29T06:57:42;8.70;99.90
5647;DHT22;2845;48.626;9.362;2023-12-29T07:00:18;8.70;99.90
5647;DHT22;2845;48.626;9.362;2023-12-29T07:02:52;8.70;99.90
5647;DHT22;2845;48.626;9.362;2023-12-29T07:08:04;8.70;99.80
5647;DHT22;2845;48.626;9.362;2023-12-29T07:10:38;8.80;99.70
5647;DHT22;2845;48.626;9.362;2023-12-29T07:13:13;8.80;99.70
5647;DHT22;2845;48.626;9.362;2023-12-29T07:15:47;11.20;99.90
5647;DHT22;2845;48.626;9.362;2023-12-29T07:18:22;8.70;99.80
5647;DHT22;2845;48.626;9.362;2023-12-29T07:20:58;10.90;99.90
5647;DHT22;2845;48.626;9.362;2023-12-29T07:23:33;13.00;99.90
5647;DHT22;2845;48.626;9.362;2023-12-29T07:28:42;8.70;99.90
5647;DHT22;2845;48.626;9.362;2023-12-29T07:31:17;8.70;99.90
5647;DHT22;2845;48.626;9.362;2023-12-29T07:33:52;8.60;99.90
5647;DHT22;2845;48.626;9.362;2023-12-29T07:39:03;8.60;99.90
5647;DHT22;2845;48.626;9.362;2023-12-29T07:41:40;8.70;99.90
5647;DHT22;2845;48.626;9.362;2023-12-29T07:44:15;8.80;99.90
5647;DHT22;2845;48.626;9.362;2023-12-29T07:46:49;10.40;99.90
5647;DHT22;2845;48.626;9.362;2023-12-29T07:49:25;10.50;99.90
5647;DHT22;2845;48.626;9.362;2023-12-29T07:54:36;9.10;99.70
5647;DHT22;2845;48.626;9.362;2023-12-29T07:57:11;9.10;99.70
5647;DHT22;2845;48.626;9.362;2023-12-29T07:59:46;9.10;99.60
5647;DHT22;2845;48.626;9.362;2023-12-29T08:02:20;9.10;99.60
5647;DHT22;2845;48.626;9.362;2023-12-29T08:04:55;12.10;99.90
5647;DHT22;2845;48.626;9.362;2023-12-29T08:07:32;9.90;99.90
5647;DHT22;2845;48.626;9.362;2023-12-29T08:10:08;9.20;99.90
5647;DHT22;2845;48.626;9.362;2023-12-29T08:12:43;6.20;99.30
5647;DHT22;2845;48.626;9.362;2023-12-29T08:15:18;9.30;99.90
5647;DHT22;2845;48.626;9.362;2023-12-29T08:17:55;9.30;99.40
5647;DHT22;2845;48.626;9.362;2023-12-29T08:20:30;11.90;99.90
5647;DHT22;2845;48.626;9.362;2023-12-29T08:25:41;9.50;99.00
5647;DHT22;2845;48.626;9.362;2023-12-29T08:28:16;9.50;98.90
5647;DHT22;2845;48.626;9.362;2023-12-29T08:30:51;12.70;99.90
5647;DHT22;2845;48.626;9.362;2023-12-29T08:33:26;13.50;99.90
5647;DHT22;2845;48.626;9.362;2023-12-29T08:36:02;9.80;98.70
5647;DHT22;2845;48.626;9.362;2023-12-29T08:38:39;6.60;98.20
5647;DHT22;2845;48.626;9.362;2023-12-29T08:41:14;9.80;98.50
5647;DHT22;2845;48.626;9.362;2023-12-29T08:43:49;11.20;98.80
5647;DHT22;2845;48.626;9.362;2023-12-29T08:46:24;9.80;98.50
5647;DHT22;2845;48.626;9.362;2023-12-29T08:48:58;9.80;98.40
5647;DHT22;2845;48.626;9.362;2023-12-29T08:51:34;9.90;98.40
5647;DHT22;2845;48.626;9.362;2023-12-29T08:56:48;9.90;98.40
5647;DHT22;2845;48.626;9.362;2023-12-29T08:59:22;10.00;98.40
5647;DHT22;2845;48.626;9.362;2023-12-29T09:01:57;10.00;98.30
5647;DHT22;2845;48.626;9.362;2023-12-29T09:04:32;10.10;98.10
5647;DHT22;2845;48.626;9.362;2023-12-29T09:07:08;10.20;98.10
5647;DHT22;2845;48.626;9.362;2023-12-29T09:12:21;10.30;97.90
5647;DHT22;2845;48.626;9.362;2023-12-29T09:14:55;12.60;99.00
5647;DHT22;2845;48.626;9.362;2023-12-29T09:17:29;10.40;98.00
5647;DHT22;2845;48.626;9.362;2023-12-29T09:20:05;10.50;97.80
5647;DHT22;2845;48.626;9.362;2023-12-29T09:22:43;10.60;98.10
5647;DHT22;2845;48.626;9.362;2023-12-29T09:25:19;12.10;98.30
5647;DHT22;2845;48.626;9.362;2023-12-29T09:27:54;10.60;97.80
5647;DHT22;2845;48.626;9.362;2023-12-29T09:30:29;14.30;98.60
5647;DHT22;2845;48.626;9.362;2023-12-29T09:33:03;10.80;97.40
5647;DHT22;2845;48.626;9.362;2023-12-29T09:35:40;10.80;97.30
5647;DHT22;2845;48.626;9.362;2023-12-29T09:38:18;13.10;98.10
5647;DHT22;2845;48.626;9.362;2023-12-29T09:40:59;11.00;97.90
5647;DHT22;2845;48.626;9.362;2023-12-29T09:43:39;12.70;98.10
5647;DHT22;2845;48.626;9.362;2023-12-29T09:46:17;12.50;97.70
5647;DHT22;2845;48.626;9.362;2023-12-29T09:48:52;10.90;97.30
5647;DHT22;2845;48.626;9.362;2023-12-29T09:51:30;10.90;97.20
5647;DHT22;2845;48.626;9.362;2023-12-29T09:54:06;11.00;97.20
5647;DHT22;2845;48.626;9.362;2023-12-29T09:56:49;11.10;97.00
5647;DHT22;2845;48.626;9.362;2023-12-29T09:59:24;14.00;97.80
5647;DHT22;2845;48.626;9.362;2023-12-29T10:01:59;11.20;97.10
5647;DHT22;2845;48.626;9.362;2023-12-29T10:04:35;11.50;97.20
5647;DHT22;2845;48.626;9.362;2023-12-29T10:07:15;8.20;96.20
5647;DHT22;2845;48.626;9.362;2023-12-29T10:10:16;11.30;96.90
5647;DHT22;2845;48.626;9.362;2023-12-29T10:13:15;15.60;98.60
5647;DHT22;2845;48.626;9.362;2023-12-29T10:15:59;12.50;97.80
5647;DHT22;2845;48.626;9.362;2023-12-29T10:18:44;13.00;97.80
5647;DHT22;2845;48.626;9.362;2023-12-29T10:21:26;11.10;97.10
5647;DHT22;2845;48.626;9.362;2023-12-29T10:24:15;12.60;97.50
5647;DHT22;2845;48.626;9.362;2023-12-29T10:26:51;11.30;96.90
5647;DHT22;2845;48.626;9.362;2023-12-29T10:32:03;11.40;96.60
5647;DHT22;2845;48.626;9.362;2023-12-29T10:34:39;11.50;96.50
5647;DHT22;2845;48.626;9.362;2023-12-29T10:37:22;11.50;97.10
5647;DHT22;2845;48.626;9.362;2023-12-29T10:39:59;11.30;97.10
5647;DHT22;2845;48.626;9.362;2023-12-29T10:42:34;11.70;97.30
5647;DHT22;2845;48.626;9.362;2023-12-29T10:45:13;11.10;96.90
5647;DHT22;2845;48.626;9.362;2023-12-29T10:47:48;11.00;97.00
5647;DHT22;2845;48.626;9.362;2023-12-29T10:50:23;11.10;96.90
5647;DHT22;2845;48.626;9.362;2023-12-29T10:53:13;12.50;97.00
5647;DHT22;2845;48.626;9.362;2023-12-29T10:55:50;15.00;98.10
5647;DHT22;2845;48.626;9.362;2023-12-29T10:58:28;9.70;96.80
5647;DHT22;2845;48.626;9.362;2023-12-29T11:01:14;11.30;96.60
5647;DHT22;2845;48.626;9.362;2023-12-29T11:06:40;11.30;96.60
5647;DHT22;2845;48.626;9.362;2023-12-29T11:09:27;11.30;96.70
5647;DHT22;2845;48.626;9.362;2023-12-29T11:12:04;11.40;96.50
5647;DHT22;2845;48.626;9.362;2023-12-29T11:14:41;12.70;97.30
5647;DHT22;2845;48.626;9.362;2023-12-29T11:17:21;12.00;97.40
5647;DHT22;2845;48.626;9.362;2023-12-29T11:19:58;13.40;97.20
5647;DHT22;2845;48.626;9.362;2023-12-29T11:22:43;13.00;96.90
5647;DHT22;2845;48.626;9.362;2023-12-29T11:25:24;11.90;97.00
5647;DHT22;2845;48.626;9.362;2023-12-29T11:28:01;10.50;96.20
5647;DHT22;2845;48.626;9.362;2023-12-29T11:30:37;14.20;97.00
5647;DHT22;2845;48.626;9.362;2023-12-29T11:33:22;12.40;97.10
5647;DHT22;2845;48.626;9.362;2023-12-29T11:36:08;12.50;96.50
5647;DHT22;2845;48.626;9.362;2023-12-29T11:39:13;14.10;96.50
5647;DHT22;2845;48.626;9.362;2023-12-29T11:41:59;13.10;96.80
5647;DHT22;2845;48.626;9.362;2023-12-29T11:44:37;13.10;96.30
5647;DHT22;2845;48.626;9.362;2023-12-29T11:47:34;14.60;97.10
5647;DHT22;2845;48.626;9.362;2023-12-29T11:50:12;11.80;95.80
5647;DHT22;2845;48.626;9.362;2023-12-29T11:52:49;15.10;97.00
5647;DHT22;2845;48.626;9.362;2023-12-29T11:55:29;12.80;96.50
5647;DHT22;2845;48.626;9.362;2023-12-29T11:58:26;11.60;95.90
5647;DHT22;2845;48.626;9.362;2023-12-29T12:01:03;14.80;96.80
5647;DHT22;2845;48.626;9.362;2023-12-29T12:03:40;11.40;96.10
5647;DHT22;2845;48.626;9.362;2023-12-29T12:06:38;13.30;96.70
5647;DHT22;2845;48.626;9.362;2023-12-29T12:09:19;12.10;96.70
5647;DHT22;2845;48.626;9.362;2023-12-29T12:11:59;16.10;97.00
5647;DHT22;2845;48.626;9.362;2023-12-29T12:14:52;11.30;96.50
5647;DHT22;2845;48.626;9.362;2023-12-29T12:17:31;11.40;95.70
5647;DHT22;2845;48.626;9.362;2023-12-29T12:20:09;11.40;95.80
5647;DHT22;2845;48.626;9.362;2023-12-29T12:22:49;13.50;96.20
5647;DHT22;2845;48.626;9.362;2023-12-29T12:25:30;11.50;96.10
5647;DHT22;2845;48.626;9.362;2023-12-29T12:28:09;12.30;95.80
5647;DHT22;2845;48.626;9.362;2023-12-29T12:30:44;15.80;96.70
5647;DHT22;2845;48.626;9.362;2023-12-29T12:33:22;14.80;96.60
5647;DHT22;2845;48.626;9.362;2023-12-29T12:36:06;12.30;95.80
5647;DHT22;2845;48.626;9.362;2023-12-29T12:38:52;11.90;95.50
5647;DHT22;2845;48.626;9.362;2023-12-29T12:41:26;12.10;95.10
5647;DHT22;2845;48.626;9.362;2023-12-29T12:44:07;14.80;95.70
5647;DHT22;2845;48.626;9.362;2023-12-29T12:46:49;12.40;95.00
5647;DHT22;2845;48.626;9.362;2023-12-29T12:49:25;14.60;95.30
5647;DHT22;2845;48.626;9.362;2023-12-29T12:51:59;14.00;95.10
5647;DHT22;2845;48.626;9.362;2023-12-29T12:54:36;12.50;94.80
5647;DHT22;2845;48.626;9.362;2023-12-29T12:57:11;12.50;94.70
5647;DHT22;2845;48.626;9.362;2023-12-29T12:59:45;12.40;94.40
5647;DHT22;2845;48.626;9.362;2023-12-29T13:02:20;12.30;94.50
5647;DHT22;2845;48.626;9.362;2023-12-29T13:04:55;12.20;94.60
5647;DHT22;2845;48.626;9.362;2023-12-29T13:07:30;9.90;94.20
5647;DHT22;2845;48.626;9.362;2023-12-29T13:12:55;12.00;94.80
5647;DHT22;2845;48.626;9.362;2023-12-29T13:15:30;11.90;95.00
5647;DHT22;2845;48.626;9.362;2023-12-29T13:18:09;16.70;96.70
5647;DHT22;2845;48.626;9.362;2023-12-29T13:23:19;11.90;95.00
5647;DHT22;2845;48.626;9.362;2023-12-29T13:25:58;11.90;95.00
5647;DHT22;2845;48.626;9.362;2023-12-29T13:28:34;11.90;95.00
5647;DHT22;2845;48.626;9.362;2023-12-29T13:31:13;11.90;95.00
5647;DHT22;2845;48.626;9.362;2023-12-29T13:33:54;13.20;95.20
5647;DHT22;2845;48.626;9.362;2023-12-29T13:36:36;12.00;94.90
5647;DHT22;2845;48.626;9.362;2023-12-29T13:39:23;12.00;94.40
5647;DHT22;2845;48.626;9.362;2023-12-29T13:42:07;12.00;94.30
5647;DHT22;2845;48.626;9.362;2023-12-29T13:44:43;12.00;94.20
5647;DHT22;2845;48.626;9.362;2023-12-29T13:47:18;12.10;94.20
5647;DHT22;2845;48.626;9.362;2023-12-29T13:49:54;10.70;93.80
5647;DHT22;2845;48.626;9.362;2023-12-29T13:52:28;12.00;94.20
5647;DHT22;2845;48.626;9.362;2023-12-29T13:55:03;12.10;94.00
5647;DHT22;2845;48.626;9.362;2023-12-29T13:57:40;12.10;94.00
5647;DHT22;2845;48.626;9.362;2023-12-29T14:00:18;12.00;93.90
5647;DHT22;2845;48.626;9.362;2023-12-29T14:03:02;12.00;94.10
5647;DHT22;2845;48.626;9.362;2023-12-29T14:05:43;12.00;94.20
5647;DHT22;2845;48.626;9.362;2023-12-29T14:08:26;12.50;94.00
5647;DHT22;2845;48.626;9.362;2023-12-29T14:11:06;12.70;94.20
5647;DHT22;2845;48.626;9.362;2023-12-29T14:13:43;12.10;94.00
5647;DHT22;2845;48.626;9.362;2023-12-29T14:16:18;12.70;94.00
5647;DHT22;2845;48.626;9.362;2023-12-29T14:18:55;12.00;93.90
5647;DHT22;2845;48.626;9.362;2023-12-29T14:21:33;11.90;93.90
5647;DHT22;2845;48.626;9.362;2023-12-29T14:24:08;12.80;93.70
5647;DHT22;2845;48.626;9.362;2023-12-29T14:26:54;12.20;93.20
5647;DHT22;2845;48.626;9.362;2023-12-29T14:29:40;11.70;93.30
5647;DHT22;2845;48.626;9.362;2023-12-29T14:32:15;11.60;93.40
5647;DHT22;2845;48.626;9.362;2023-12-29T14:34:49;12.70;93.90
5647;DHT22;2845;48.626;9.362;2023-12-29T14:37:27;11.50;93.20
5647;DHT22;2845;48.626;9.362;2023-12-29T14:40:03;11.50;93.30
5647;DHT22;2845;48.626;9.362;2023-12-29T14:42:38;11.40;93.40
5647;DHT22;2845;48.626;9.362;2023-12-29T14:45:14;11.30;93.50
5647;DHT22;2845;48.626;9.362;2023-12-29T14:47:48;11.30;93.50
5647;DHT22;2845;48.626;9.362;2023-12-29T14:50:23;11.20;93.60
5647;DHT22;2845;48.626;9.362;2023-12-29T14:53:01;14.40;94.10
5647;DHT22;2845;48.626;9.362;2023-12-29T14:55:37;11.10;93.50
5647;DHT22;2845;48.626;9.362;2023-12-29T14:58:13;11.00;93.50
5647;DHT22;2845;48.626;9.362;2023-12-29T15:00:50;11.00;93.30
5647;DHT22;2845;48.626;9.362;2023-12-29T15:03:25;10.90;93.50
5647;DHT22;2845;48.626;9.362;2023-12-29T15:06:00;10.90;93.80
5647;DHT22;2845;48.626;9.362;2023-12-29T15:08:37;10.80;93.60
5647;DHT22;2845;48.626;9.362;2023-12-29T15:11:12;10.70;93.60
5647;DHT22;2845;48.626;9.362;2023-12-29T15:13:46;10.70;93.70
5647;DHT22;2845;48.626;9.362;2023-12-29T15:16:22;10.60;94.00
5647;DHT22;2845;48.626;9.362;2023-12-29T15:18:57;10.50;93.90
5647;DHT22;2845;48.626;9.362;2023-12-29T15:21:38;10.50;94.00
5647;DHT22;2845;48.626;9.362;2023-12-29T15:24:12;10.40;94.10
5647;DHT22;2845;48.626;9.362;2023-12-29T15:26:47;10.40;94.10
5647;DHT22;2845;48.626;9.362;2023-12-29T15:29:21;11.00;94.20
5647;DHT22;2845;48.626;9.362;2023-12-29T15:31:58;12.80;94.60
5647;DHT22;2845;48.626;9.362;2023-12-29T15:34:33;11.40;94.50
5647;DHT22;2845;48.626;9.362;2023-12-29T15:37:07;13.60;94.70
5647;DHT22;2845;48.626;9.362;2023-12-29T15:39:41;10.20;94.10
5647;DHT22;2845;48.626;9.362;2023-12-29T15:42:16;10.80;94.20
5647;DHT22;2845;48.626;9.362;2023-12-29T15:44:50;11.20;94.30
5647;DHT22;2845;48.626;9.362;2023-12-29T15:47:26;10.00;93.90
5647;DHT22;2845;48.626;9.362;2023-12-29T15:50:00;10.00;94.00
5647;DHT22;2845;48.626;9.362;2023-12-29T15:52:34;13.20;95.10
5647;DHT22;2845;48.626;9.362;2023-12-29T15:55:08;9.80;94.30
5647;DHT22;2845;48.626;9.362;2023-12-29T15:57:42;9.80;94.30
5647;DHT22;2845;48.626;9.362;2023-12-29T16:02:54;9.70;94.50
5647;DHT22;2845;48.626;9.362;2023-12-29T16:05:28;9.70;94.60
5647;DHT22;2845;48.626;9.362;2023-12-29T16:08:03;9.70;94.60
5647;DHT22;2845;48.626;9.362;2023-12-29T16:10:38;9.50;94.70
5647;DHT22;2845;48.626;9.362;2023-12-29T16:13:12;9.50;94.80
5647;DHT22;2845;48.626;9.362;2023-12-29T16:15:46;10.80;95.10
5647;DHT22;2845;48.626;9.362;2023-12-29T16:18:22;9.50;94.90
5647;DHT22;2845;48.626;9.362;2023-12-29T16:20:57;10.60;95.20
5647;DHT22;2845;48.626;9.362;2023-12-29T16:23:31;13.50;95.90
5647;DHT22;2845;48.626;9.362;2023-12-29T16:26:05;9.40;95.10
5647;DHT22;2845;48.626;9.362;2023-12-29T16:28:40;9.30;95.00
5647;DHT22;2845;48.626;9.362;2023-12-29T16:31:14;9.20;95.00
5647;DHT22;2845;48.626;9.362;2023-12-29T16:33:50;10.60;95.50
5647;DHT22;2845;48.626;9.362;2023-12-29T16:36:24;9.20;95.30
5647;DHT22;2845;48.626;9.362;2023-12-29T16:38:58;9.10;95.30
5647;DHT22;2845;48.626;9.362;2023-12-29T16:41:32;9.00;95.40
5647;DHT22;2845;48.626;9.362;2023-12-29T16:44:07;9.00;95.50
5647;DHT22;2845;48.626;9.362;2023-12-29T16:46:41;9.00;95.50
5647;DHT22;2845;48.626;9.362;2023-12-29T16:49:17;8.90;95.50
5647;DHT22;2845;48.626;9.362;2023-12-29T16:51:52;8.90;95.60
5647;DHT22;2845;48.626;9.362;2023-12-29T16:54:26;8.80;95.60
5647;DHT22;2845;48.626;9.362;2023-12-29T16:57:00;8.80;95.70
5647;DHT22;2845;48.626;9.362;2023-12-29T16:59:35;11.20;96.20
5647;DHT22;2845;48.626;9.362;2023-12-29T17:02:09;8.70;95.70
5647;DHT22;2845;48.626;9.362;2023-12-29T17:04:44;8.70;95.70
5647;DHT22;2845;48.626;9.362;2023-12-29T17:07:19;8.70;95.80
5647;DHT22;2845;48.626;9.362;2023-12-29T17:09:53;8.60;95.60
5647;DHT22;2845;48.626;9.362;2023-12-29T17:12:27;8.60;95.70
5647;DHT22;2845;48.626;9.362;2023-12-29T17:15:01;8.60;95.80
5647;DHT22;2845;48.626;9.362;2023-12-29T17:17:37;8.50;95.80
5647;DHT22;2845;48.626;9.362;2023-12-29T17:20:12;8.50;95.90
5647;DHT22;2845;48.626;9.362;2023-12-29T17:22:47;8.50;95.90
5647;DHT22;2845;48.626;9.362;2023-12-29T17:25:21;8.50;96.00
5647;DHT22;2845;48.626;9.362;2023-12-29T17:27:56;8.90;96.00
5647;DHT22;2845;48.626;9.362;2023-12-29T17:30:30;10.70;96.40
5647;DHT22;2845;48.626;9.362;2023-12-29T17:33:04;8.40;96.00
5647;DHT22;2845;48.626;9.362;2023-12-29T17:35:40;8.40;96.00
5647;DHT22;2845;48.626;9.362;2023-12-29T17:38:14;9.70;96.30
5647;DHT22;2845;48.626;9.362;2023-12-29T17:40:48;9.30;96.30
5647;DHT22;2845;48.626;9.362;2023-12-29T17:43:22;8.30;96.10
5647;DHT22;2845;48.626;9.362;2023-12-29T17:45:57;8.90;96.30
5647;DHT22;2845;48.626;9.362;2023-12-29T17:48:31;8.30;96.20
5647;DHT22;2845;48.626;9.362;2023-12-29T17:51:06;10.50;96.70
5647;DHT22;2845;48.626;9.362;2023-12-29T17:53:41;10.30;96.70
5647;DHT22;2845;48.626;9.362;2023-12-29T17:56:16;8.20;96.30
5647;DHT22;2845;48.626;9.362;2023-12-29T17:58:50;8.20;96.30
5647;DHT22;2845;48.626;9.362;2023-12-29T18:01:25;8.20;96.40
5647;DHT22;2845;48.626;9.362;2023-12-29T18:03:59;8.10;96.40
5647;DHT22;2845;48.626;9.362;2023-12-29T18:06:35;8.20;96.50
5647;DHT22;2845;48.626;9.362;2023-12-29T18:09:12;8.20;96.40
5647;DHT22;2845;48.626;9.362;2023-12-29T18:11:50;8.10;96.40
5647;DHT22;2845;48.626;9.362;2023-12-29T18:14:25;8.10;96.40
5647;DHT22;2845;48.626;9.362;2023-12-29T18:16:59;8.10;96.50
5647;DHT22;2845;48.626;9.362;2023-12-29T18:19:33;8.40;96.50
5647;DHT22;2845;48.626;9.362;2023-12-29T18:22:09;8.00;96.50